createdAt,value
2022-09-21T00:01:25.288Z,11.04
2022-09-21T00:03:57.907Z,10.80
2022-09-21T00:06:26.652Z,10.98
2022-09-21T00:08:53.688Z,10.86
2022-09-21T00:11:25.007Z,10.88
2022-09-21T00:13:54.288Z,10.88
2022-09-21T00:16:22.095Z,10.85
2022-09-21T00:18:49.071Z,10.64
2022-09-21T00:21:17.094Z,10.77
2022-09-21T00:23:45.077Z,10.73
2022-09-21T00:26:16.136Z,10.60
2022-09-21T00:28:44.586Z,10.54
2022-09-21T00:31:14.445Z,10.19
2022-09-21T00:33:43.646Z,10.73
2022-09-21T00:36:13.770Z,10.77
2022-09-21T00:38:41.228Z,10.54
2022-09-21T00:41:09.913Z,10.75
2022-09-21T00:43:40.724Z,10.66
2022-09-21T00:46:20.315Z,10.70
2022-09-21T00:48:47.242Z,10.69
2022-09-21T00:51:14.795Z,10.65
2022-09-21T00:53:41.839Z,10.75
2022-09-21T00:56:11.130Z,10.28
2022-09-21T00:58:46.915Z,10.58
2022-09-21T01:01:16.663Z,10.09
2022-09-21T01:03:45.896Z,10.50
2022-09-21T01:06:15.002Z,10.15
2022-09-21T01:08:42.917Z,10.16
2022-09-21T01:11:26.270Z,10.27
2022-09-21T01:14:30.088Z,10.71
2022-09-21T01:17:09.329Z,10.07
2022-09-21T01:19:54.787Z,10.73
2022-09-21T01:22:36.951Z,10.67
2022-09-21T01:25:24.321Z,10.68
2022-09-21T01:27:57.464Z,10.63
2022-09-21T01:30:25.846Z,10.47
2022-09-21T01:33:03.333Z,10.63
2022-09-21T01:35:47.033Z,10.59
2022-09-21T01:38:41.052Z,10.52
2022-09-21T01:41:12.347Z,9.84
2022-09-21T01:44:10.658Z,10.38
2022-09-21T01:46:38.187Z,10.41
2022-09-21T01:49:11.832Z,10.23
2022-09-21T01:51:44.252Z,9.86
2022-09-21T01:54:20.779Z,10.18
2022-09-21T01:57:01.621Z,10.20
2022-09-21T01:59:52.898Z,10.15
2022-09-21T02:02:41.740Z,10.30
2022-09-21T02:05:08.901Z,9.71
2022-09-21T02:07:37.703Z,10.30
2022-09-21T02:10:07.644Z,10.25
2022-09-21T02:12:34.646Z,10.32
2022-09-21T02:15:02.933Z,10.21
2022-09-21T02:17:44.084Z,9.87
2022-09-21T02:20:24.977Z,10.36
2022-09-21T02:23:10.106Z,10.05
2022-09-21T02:25:49.989Z,10.31
2022-09-21T02:28:26.741Z,10.27
2022-09-21T02:31:10.127Z,9.87
2022-09-21T02:33:45.851Z,10.24
2022-09-21T02:36:31.971Z,9.71
2022-09-21T02:39:16.099Z,10.05
2022-09-21T02:42:03.989Z,10.35
2022-09-21T02:44:42.610Z,10.28
2022-09-21T02:47:21.590Z,10.33
2022-09-21T02:49:53.487Z,10.31
2022-09-21T02:52:22.486Z,10.24
2022-09-21T02:54:52.456Z,9.27
2022-09-21T02:57:21.963Z,10.26
2022-09-21T02:59:50.667Z,9.63
2022-09-21T03:02:18.221Z,9.74
2022-09-21T03:04:47.791Z,10.16
2022-09-21T03:07:16.329Z,9.83
2022-09-21T03:09:43.622Z,10.00
2022-09-21T03:12:10.532Z,10.08
2022-09-21T03:14:37.638Z,9.82
2022-09-21T03:17:04.696Z,10.15
2022-09-21T03:19:31.593Z,9.90
2022-09-21T03:21:59.895Z,10.18
2022-09-21T03:24:45.524Z,9.73
2022-09-21T03:27:17.115Z,10.05
2022-09-21T03:29:44.437Z,10.14
2022-09-21T03:32:11.733Z,10.15
2022-09-21T03:34:38.690Z,10.12
2022-09-21T03:37:07.389Z,10.13
2022-09-21T03:39:35.093Z,10.22
2022-09-21T03:42:02.748Z,10.33
2022-09-21T03:44:29.813Z,9.89
2022-09-21T03:46:58.384Z,10.20
2022-09-21T03:49:26.210Z,10.40
2022-09-21T03:51:53.332Z,10.43
2022-09-21T03:54:20.603Z,10.61
2022-09-21T03:56:47.453Z,10.61
2022-09-21T03:59:14.572Z,10.17
2022-09-21T04:01:42.400Z,10.67
2022-09-21T04:04:10.415Z,10.72
2022-09-21T04:06:37.448Z,10.72
2022-09-21T04:09:04.595Z,10.68
2022-09-21T04:11:33.453Z,10.64
2022-09-21T04:14:00.577Z,10.64
2022-09-21T04:16:28.311Z,10.49
2022-09-21T04:18:55.298Z,10.63
2022-09-21T04:21:22.491Z,10.07
2022-09-21T04:23:50.047Z,10.59
2022-09-21T04:26:20.309Z,10.68
2022-09-21T04:28:47.264Z,10.67
2022-09-21T04:31:14.185Z,10.54
2022-09-21T04:33:41.731Z,10.82
2022-09-21T04:36:08.771Z,10.38
2022-09-21T04:38:35.674Z,10.90
2022-09-21T04:41:03.886Z,10.01
2022-09-21T04:43:30.855Z,10.69
2022-09-21T04:45:57.802Z,10.95
2022-09-21T04:48:24.949Z,10.50
2022-09-21T04:50:51.962Z,10.39
2022-09-21T04:53:19.117Z,11.02
2022-09-21T04:55:46.523Z,11.07
2022-09-21T04:58:13.600Z,11.06
2022-09-21T05:00:40.615Z,11.02
2022-09-21T05:03:07.518Z,11.15
2022-09-21T05:05:34.541Z,11.20
2022-09-21T05:08:01.729Z,11.21
2022-09-21T05:10:28.766Z,11.26
2022-09-21T05:12:55.795Z,11.22
2022-09-21T05:15:22.734Z,11.24
2022-09-21T05:17:49.793Z,11.42
2022-09-21T05:20:16.868Z,11.49
2022-09-21T05:22:43.889Z,11.54
2022-09-21T05:25:10.930Z,11.16
2022-09-21T05:27:37.823Z,11.66
2022-09-21T05:30:06.255Z,11.64
2022-09-21T05:32:44.056Z,11.70
2022-09-21T05:35:38.552Z,11.89
2022-09-21T05:38:08.476Z,11.87
2022-09-21T05:40:35.889Z,11.88
2022-09-21T05:43:03.324Z,11.82
2022-09-21T05:45:30.648Z,11.87
2022-09-21T05:48:00.491Z,12.15
2022-09-21T05:50:53.247Z,12.29
2022-09-21T05:53:37.371Z,12.33
2022-09-21T05:56:45.815Z,12.45
2022-09-21T05:59:41.447Z,12.34
2022-09-21T06:02:19.492Z,12.22
2022-09-21T06:04:47.613Z,12.55
2022-09-21T06:07:14.490Z,12.65
2022-09-21T06:09:43.319Z,12.56
2022-09-21T06:12:11.502Z,12.62
2022-09-21T06:14:38.619Z,12.36
2022-09-21T06:17:05.691Z,13.00
2022-09-21T06:19:32.789Z,12.88
2022-09-21T06:21:59.682Z,12.50
2022-09-21T06:24:26.602Z,12.45
2022-09-21T06:26:53.538Z,13.07
2022-09-21T06:29:23.735Z,12.91
2022-09-21T06:31:51.468Z,13.31
2022-09-21T06:34:18.626Z,13.62
2022-09-21T06:36:48.275Z,13.73
2022-09-21T06:39:15.237Z,13.90
2022-09-21T06:41:42.207Z,13.93
2022-09-21T06:44:10.553Z,13.95
2022-09-21T06:46:37.484Z,13.70
2022-09-21T06:49:04.450Z,14.16
2022-09-21T06:51:31.487Z,14.19
2022-09-21T06:53:59.144Z,14.41
2022-09-21T06:56:26.626Z,14.61
2022-09-21T06:58:53.662Z,14.80
2022-09-21T07:01:20.980Z,14.96
2022-09-21T07:03:52.139Z,15.03
2022-09-21T07:06:20.547Z,14.36
2022-09-21T07:11:35.983Z,14.87
2022-09-21T07:14:04.347Z,14.91
2022-09-21T07:16:31.367Z,14.87
2022-09-21T07:19:10.025Z,14.45
2022-09-21T07:21:37.590Z,14.95
2022-09-21T07:24:08.227Z,14.86
2022-09-21T07:26:38.052Z,15.04
2022-09-21T07:29:05.360Z,15.03
2022-09-21T07:31:32.372Z,14.53
2022-09-21T07:33:59.512Z,14.91
2022-09-21T07:36:26.688Z,14.93
2022-09-21T07:38:54.233Z,14.98
2022-09-21T07:41:21.597Z,14.91
2022-09-21T07:43:48.695Z,14.95
2022-09-21T07:46:16.315Z,15.02
2022-09-21T07:48:43.532Z,14.68
2022-09-21T07:51:13.487Z,15.21
2022-09-21T07:53:44.553Z,15.25
2022-09-21T07:56:14.547Z,15.28
2022-09-21T07:59:00.857Z,14.85
2022-09-21T08:01:29.121Z,15.27
2022-09-21T08:03:58.273Z,15.43
2022-09-21T08:06:27.602Z,15.47
2022-09-21T08:08:57.814Z,15.50
2022-09-21T08:11:27.588Z,15.38
2022-09-21T08:13:57.597Z,15.41
2022-09-21T08:16:25.637Z,14.85
2022-09-21T08:18:53.144Z,15.37
2022-09-21T08:21:20.663Z,15.37
2022-09-21T08:23:49.389Z,15.37
2022-09-21T08:26:19.586Z,15.26
2022-09-21T08:28:51.223Z,15.39
2022-09-21T08:31:21.162Z,15.43
2022-09-21T08:33:50.089Z,15.21
2022-09-21T08:36:18.112Z,15.23
2022-09-21T08:38:45.661Z,15.20
2022-09-21T08:41:17.637Z,15.32
2022-09-21T08:43:50.269Z,15.30
2022-09-21T08:46:20.312Z,14.99
2022-09-21T08:48:55.174Z,15.39
2022-09-21T08:51:26.867Z,15.62
2022-09-21T08:54:00.470Z,15.64
2022-09-21T08:56:41.872Z,15.72
2022-09-21T08:59:15.901Z,15.91
2022-09-21T09:02:17.688Z,15.38
2022-09-21T09:05:10.810Z,15.75
2022-09-21T09:08:07.746Z,15.81
2022-09-21T09:10:56.456Z,15.95
2022-09-21T09:14:03.694Z,15.35
2022-09-21T09:17:12.861Z,15.94
2022-09-21T09:19:51.408Z,15.82
2022-09-21T09:22:28.809Z,15.51
2022-09-21T09:25:01.141Z,15.91
2022-09-21T09:27:35.315Z,15.85
2022-09-21T09:30:04.857Z,15.90
2022-09-21T09:32:55.517Z,15.40
2022-09-21T09:35:29.045Z,15.56
2022-09-21T09:38:16.430Z,15.57
2022-09-21T09:40:58.354Z,15.90
2022-09-21T09:43:25.193Z,16.00
2022-09-21T09:46:13.636Z,15.91
2022-09-21T09:49:40.006Z,16.26
2022-09-21T09:52:12.233Z,16.23
2022-09-21T09:54:41.411Z,16.21
2022-09-21T09:57:11.024Z,16.17
2022-09-21T09:59:44.683Z,15.69
2022-09-21T10:02:27.885Z,16.27
2022-09-21T10:05:06.595Z,16.34
2022-09-21T10:07:36.837Z,16.41
2022-09-21T10:10:24.030Z,16.46
2022-09-21T10:12:54.979Z,16.47
2022-09-21T10:15:24.874Z,16.58
2022-09-21T10:18:36.319Z,16.64
2022-09-21T10:21:08.111Z,16.36
2022-09-21T10:23:38.061Z,16.42
2022-09-21T10:26:11.021Z,16.33
2022-09-21T10:28:55.227Z,16.35
2022-09-21T10:31:27.743Z,16.18
2022-09-21T10:34:05.394Z,16.01
2022-09-21T10:36:35.305Z,16.38
2022-09-21T10:39:17.835Z,16.55
2022-09-21T10:42:01.887Z,16.55
2022-09-21T10:44:43.416Z,16.53
2022-09-21T10:47:37.373Z,16.63
2022-09-21T10:50:08.054Z,15.27
2022-09-21T10:52:39.776Z,15.58
2022-09-21T10:55:15.136Z,16.50
2022-09-21T10:57:44.547Z,16.17
2022-09-21T11:00:35.054Z,15.69
2022-09-21T11:03:26.829Z,16.52
2022-09-21T11:05:54.554Z,16.29
2022-09-21T11:08:32.336Z,16.56
2022-09-21T11:11:08.180Z,16.60
2022-09-21T11:13:42.476Z,16.63
2022-09-21T11:16:12.427Z,16.64
2022-09-21T11:19:10.244Z,15.75
2022-09-21T11:21:53.783Z,16.57
2022-09-21T11:24:25.227Z,16.48
2022-09-21T11:27:05.595Z,16.30
2022-09-21T11:29:42.542Z,16.40
2022-09-21T11:32:22.337Z,16.52
2022-09-21T11:35:09.038Z,16.41
2022-09-21T11:37:54.909Z,16.26
2022-09-21T11:40:55.983Z,15.36
2022-09-21T11:43:35.688Z,16.40
2022-09-21T11:46:24.271Z,16.33
2022-09-21T11:49:27.943Z,16.33
2022-09-21T11:51:59.407Z,16.22
2022-09-21T11:54:27.328Z,16.22
2022-09-21T11:57:11.355Z,16.12
2022-09-21T11:59:54.253Z,16.10
2022-09-21T12:02:37.797Z,15.94
2022-09-21T12:05:34.758Z,16.22
2022-09-21T12:08:28.828Z,16.19
2022-09-21T12:11:08.145Z,16.09
2022-09-21T12:14:18.180Z,15.73
2022-09-21T12:16:50.248Z,16.01
2022-09-21T12:19:51.201Z,16.16
2022-09-21T12:22:29.128Z,16.12
2022-09-21T12:25:20.110Z,16.19
2022-09-21T12:27:52.527Z,16.15
2022-09-21T12:30:24.653Z,16.13
2022-09-21T12:33:09.574Z,15.59
2022-09-21T12:35:43.571Z,15.86
2022-09-21T12:38:20.123Z,15.99
2022-09-21T12:40:59.982Z,15.43
2022-09-21T12:43:31.180Z,15.81
2022-09-21T12:46:11.652Z,15.49
2022-09-21T12:48:40.363Z,15.67
2022-09-21T12:51:16.214Z,15.83
2022-09-21T12:53:50.891Z,15.81
2022-09-21T12:56:30.117Z,15.45
2022-09-21T12:59:34.692Z,15.86
2022-09-21T13:05:28.252Z,15.90
2022-09-21T13:08:04.687Z,15.87
2022-09-21T13:10:40.250Z,15.81
2022-09-21T13:13:18.327Z,15.83
2022-09-21T13:15:48.678Z,15.86
2022-09-21T13:18:25.449Z,15.77
2022-09-21T13:20:54.701Z,15.87
2022-09-21T13:23:42.487Z,15.89
2022-09-21T13:26:12.469Z,15.75
2022-09-21T13:29:04.603Z,16.02
2022-09-21T13:31:43.161Z,15.96
2022-09-21T13:34:15.990Z,15.91
2022-09-21T13:36:43.993Z,15.72
2022-09-21T13:39:18.055Z,15.70
2022-09-21T13:42:02.235Z,15.71
2022-09-21T13:44:44.227Z,15.90
2022-09-21T13:47:12.865Z,15.23
2022-09-21T13:49:47.031Z,15.74
2022-09-21T13:52:14.140Z,15.75
2022-09-21T13:54:58.671Z,15.79
2022-09-21T13:57:32.629Z,15.44
2022-09-21T14:00:12.578Z,15.23
2022-09-21T14:02:50.174Z,15.67
2022-09-21T14:05:42.276Z,15.77
2022-09-21T14:08:14.996Z,15.23
2022-09-21T14:11:02.233Z,15.69
2022-09-21T14:13:38.451Z,15.46
2022-09-21T14:16:47.750Z,15.72
2022-09-21T14:19:18.038Z,15.67
2022-09-21T14:22:04.055Z,15.67
2022-09-21T14:24:44.134Z,15.47
2022-09-21T14:27:36.993Z,15.09
2022-09-21T14:30:18.006Z,15.60
2022-09-21T14:33:01.376Z,15.50
2022-09-21T14:35:33.995Z,15.09
2022-09-21T14:38:05.630Z,15.41
2022-09-21T14:40:39.235Z,15.54
2022-09-21T14:43:15.774Z,15.41
2022-09-21T14:45:42.794Z,15.53
2022-09-21T14:48:22.326Z,15.54
2022-09-21T14:51:01.105Z,15.46
2022-09-21T14:53:39.612Z,15.48
2022-09-21T14:56:21.245Z,15.45
2022-09-21T14:58:58.055Z,15.48
2022-09-21T15:01:58.577Z,15.54
2022-09-21T15:05:01.061Z,15.55
2022-09-21T15:08:05.504Z,15.46
2022-09-21T15:10:56.044Z,15.03
2022-09-21T15:14:03.958Z,15.48
2022-09-21T15:16:44.314Z,14.93
2022-09-21T15:19:20.679Z,15.23
2022-09-21T15:21:49.022Z,15.15
2022-09-21T15:24:31.265Z,15.17
2022-09-21T15:27:12.889Z,15.18
2022-09-21T15:29:43.106Z,14.70
2022-09-21T15:32:10.129Z,14.65
2022-09-21T15:34:37.884Z,15.13
2022-09-21T15:37:17.617Z,15.12
2022-09-21T15:39:45.350Z,14.72
2022-09-21T15:42:23.154Z,14.99
2022-09-21T15:44:54.791Z,14.95
2022-09-21T15:47:26.386Z,14.92
2022-09-21T15:49:54.163Z,14.88
2022-09-21T15:52:30.082Z,14.75
2022-09-21T15:55:03.406Z,14.16
2022-09-21T15:57:40.750Z,14.75
2022-09-21T16:00:19.944Z,14.76
2022-09-21T16:03:08.001Z,14.60
2022-09-21T16:05:49.247Z,14.72
2022-09-21T16:08:37.427Z,14.09
2022-09-21T16:11:17.051Z,14.59
2022-09-21T16:14:04.924Z,14.45
2022-09-21T16:16:32.782Z,14.45
2022-09-21T16:19:00.350Z,14.63
2022-09-21T16:21:38.092Z,14.66
2022-09-21T16:24:27.235Z,14.64
2022-09-21T16:27:01.242Z,14.60
2022-09-21T16:29:39.434Z,14.68
2022-09-21T16:32:20.654Z,14.56
2022-09-21T16:34:53.384Z,14.58
2022-09-21T16:37:24.325Z,14.56
2022-09-21T16:39:56.371Z,14.58
2022-09-21T16:42:31.622Z,14.54
2022-09-21T16:44:59.759Z,14.56
2022-09-21T16:47:28.306Z,14.50
2022-09-21T16:50:04.303Z,14.52
2022-09-21T16:52:31.803Z,13.97
2022-09-21T16:54:59.253Z,14.23
2022-09-21T16:57:26.868Z,14.47
2022-09-21T16:59:55.136Z,14.44
2022-09-21T17:02:22.529Z,13.50
2022-09-21T17:04:49.888Z,14.09
2022-09-21T17:07:17.300Z,13.83
2022-09-21T17:09:47.978Z,14.21
2022-09-21T17:12:18.055Z,14.24
2022-09-21T17:14:47.385Z,13.82
2022-09-21T17:17:22.885Z,14.37
2022-09-21T17:19:52.758Z,14.43
2022-09-21T17:22:20.143Z,14.34
2022-09-21T17:24:55.180Z,14.20
2022-09-21T17:27:29.624Z,14.17
2022-09-21T17:29:57.381Z,13.97
2022-09-21T17:32:25.508Z,13.78
2022-09-21T17:35:01.877Z,13.84
2022-09-21T17:37:30.056Z,13.97
2022-09-21T17:39:57.768Z,13.89
2022-09-21T17:42:26.071Z,13.87
2022-09-21T17:45:07.020Z,13.82
2022-09-21T17:47:35.362Z,13.73
2022-09-21T17:50:15.104Z,13.62
2022-09-21T17:53:02.587Z,13.56
2022-09-21T17:55:31.095Z,12.98
2022-09-21T17:58:14.766Z,13.40
2022-09-21T18:00:57.886Z,13.25
2022-09-21T18:03:28.279Z,12.83
2022-09-21T18:06:01.050Z,12.60
2022-09-21T18:08:36.279Z,13.13
2022-09-21T18:11:25.211Z,13.12
2022-09-21T18:14:10.822Z,13.21
2022-09-21T18:16:51.776Z,13.21
2022-09-21T18:19:44.021Z,13.27
2022-09-21T18:22:43.692Z,13.17
2022-09-21T18:25:27.099Z,12.96
2022-09-21T18:27:57.938Z,13.09
2022-09-21T18:30:26.716Z,13.03
2022-09-21T18:33:09.867Z,12.59
2022-09-21T18:35:59.239Z,13.22
2022-09-21T18:38:41.058Z,13.14
2022-09-21T18:41:14.114Z,12.91
2022-09-21T18:44:11.582Z,13.08
2022-09-21T18:46:57.753Z,13.21
2022-09-21T18:49:43.399Z,13.18
2022-09-21T18:52:31.091Z,12.65
2022-09-21T18:54:58.453Z,12.57
2022-09-21T18:57:25.849Z,13.17
2022-09-21T18:59:53.410Z,13.12
2022-09-21T19:02:21.091Z,13.17
2022-09-21T19:04:49.543Z,13.18
2022-09-21T19:07:44.894Z,12.67
2022-09-21T19:10:25.872Z,12.97
2022-09-21T19:13:11.764Z,13.18
2022-09-21T19:16:00.226Z,12.29
2022-09-21T19:18:52.752Z,12.60
2022-09-21T19:22:11.978Z,13.32
2022-09-21T19:24:45.755Z,13.06
2022-09-21T19:27:25.998Z,13.14
2022-09-21T19:30:01.984Z,13.01
2022-09-21T19:32:42.428Z,13.12
2022-09-21T19:35:30.300Z,13.09
2022-09-21T19:38:02.459Z,12.66
2022-09-21T19:40:33.146Z,12.68
2022-09-21T19:43:06.358Z,12.95
2022-09-21T19:45:36.157Z,12.26
2022-09-21T19:48:09.018Z,12.83
2022-09-21T19:50:50.130Z,12.80
2022-09-21T19:53:35.629Z,12.86
2022-09-21T19:56:21.520Z,12.31
2022-09-21T19:59:07.417Z,12.88
2022-09-21T20:01:42.829Z,11.89
2022-09-21T20:04:16.182Z,12.16
2022-09-21T20:06:50.167Z,12.71
2022-09-21T20:09:36.905Z,12.74
2022-09-21T20:12:27.299Z,12.92
2022-09-21T20:15:29.566Z,12.96
2022-09-21T20:18:30.687Z,12.87
2022-09-21T20:20:57.930Z,12.64
2022-09-21T20:23:25.239Z,12.63
2022-09-21T20:26:06.069Z,12.78
2022-09-21T20:28:33.357Z,12.57
2022-09-21T20:31:00.741Z,12.59
2022-09-21T20:33:31.563Z,12.63
2022-09-21T20:35:59.072Z,12.45
2022-09-21T20:38:26.233Z,12.74
2022-09-21T20:40:54.231Z,12.71
2022-09-21T20:43:23.257Z,12.52
2022-09-21T20:45:50.469Z,12.49
2022-09-21T20:48:17.647Z,12.67
2022-09-21T20:50:49.239Z,12.71
2022-09-21T20:53:17.081Z,12.62
2022-09-21T20:55:56.815Z,12.65
2022-09-21T20:58:25.096Z,12.64
2022-09-21T21:00:56.455Z,12.62
2022-09-21T21:03:25.691Z,12.62
2022-09-21T21:05:52.877Z,12.51
2022-09-21T21:08:19.936Z,12.53
2022-09-21T21:10:46.996Z,12.49
2022-09-21T21:13:14.250Z,12.47
2022-09-21T21:15:41.391Z,12.46
2022-09-21T21:18:12.506Z,12.35
2022-09-21T21:20:41.184Z,11.90
2022-09-21T21:23:08.478Z,12.41
2022-09-21T21:25:36.033Z,12.30
2022-09-21T21:28:03.665Z,12.18
2022-09-21T21:30:31.667Z,11.96
2022-09-21T21:32:58.700Z,12.35
2022-09-21T21:35:26.050Z,12.39
2022-09-21T21:37:53.128Z,12.42
2022-09-21T21:40:20.911Z,12.20
2022-09-21T21:42:48.021Z,12.14
2022-09-21T21:45:15.128Z,11.82
2022-09-21T21:47:42.109Z,12.36
2022-09-21T21:50:10.459Z,12.34
2022-09-21T21:52:37.758Z,12.35
2022-09-21T21:55:05.763Z,12.19
2022-09-21T21:57:32.759Z,12.25
2022-09-21T22:00:00.141Z,12.31
2022-09-21T22:02:28.517Z,12.29
2022-09-21T22:04:55.599Z,11.95
2022-09-21T22:07:22.683Z,12.16
2022-09-21T22:09:49.998Z,11.87
2022-09-21T22:12:17.133Z,12.28
2022-09-21T22:14:46.551Z,12.28
2022-09-21T22:17:14.592Z,12.22
2022-09-21T22:19:42.520Z,12.31
2022-09-21T22:22:09.519Z,11.80
2022-09-21T22:24:36.674Z,12.38
2022-09-21T22:27:03.747Z,12.29
2022-09-21T22:29:30.745Z,12.48
2022-09-21T22:31:57.928Z,12.52
2022-09-21T22:34:24.928Z,12.54
2022-09-21T22:36:52.034Z,12.52
2022-09-21T22:39:19.012Z,12.36
2022-09-21T22:41:46.086Z,12.43
2022-09-21T22:44:13.072Z,12.44
2022-09-21T22:46:40.503Z,12.51
2022-09-21T22:49:07.846Z,12.47
2022-09-21T22:51:35.411Z,12.36
2022-09-21T22:54:02.393Z,12.42
2022-09-21T22:56:31.654Z,12.25
2022-09-21T22:59:00.517Z,12.28
2022-09-21T23:01:34.264Z,12.16
2022-09-21T23:04:12.907Z,12.41
2022-09-21T23:06:42.935Z,12.32
2022-09-21T23:09:14.878Z,12.32
2022-09-21T23:11:43.729Z,12.36
2022-09-21T23:14:12.649Z,12.42
2022-09-21T23:16:39.853Z,12.39
2022-09-21T23:19:15.399Z,12.08
2022-09-21T23:21:49.879Z,12.34
2022-09-21T23:24:18.049Z,12.30
2022-09-21T23:26:46.016Z,11.98
2022-09-21T23:29:15.376Z,12.27
2022-09-21T23:31:45.517Z,12.05
2022-09-21T23:34:13.545Z,12.18
2022-09-21T23:36:41.800Z,12.25
2022-09-21T23:39:11.874Z,12.08
2022-09-21T23:41:39.272Z,12.22
2022-09-21T23:44:07.000Z,12.25
2022-09-21T23:46:36.740Z,12.19
2022-09-21T23:49:03.830Z,12.09
2022-09-21T23:51:30.876Z,12.09
2022-09-21T23:53:58.772Z,12.25
2022-09-21T23:56:26.295Z,11.90
2022-09-21T23:58:53.181Z,12.20
